sensor_id;sensor_type;location;lat;lon;timestamp;temperature;humidity
51655;DHT22;37732;53.106;7.030;2024-02-14T00:02:16;6.60;99.90
51655;DHT22;37732;53.106;7.030;2024-02-14T00:04:42;6.70;99.90
51655;DHT22;37732;53.106;7.030;2024-02-14T00:07:08;6.60;99.90
51655;DHT22;37732;53.106;7.030;2024-02-14T00:09:34;6.60;99.90
51655;DHT22;37732;53.106;7.030;2024-02-14T00:12:00;6.60;99.90
51655;DHT22;37732;53.106;7.030;2024-02-14T00:14:26;6.60;99.90
51655;DHT22;37732;53.106;7.030;2024-02-14T00:16:51;6.60;99.90
51655;DHT22;37732;53.106;7.030;2024-02-14T00:19:17;6.60;99.90
51655;DHT22;37732;53.106;7.030;2024-02-14T00:21:43;6.60;99.90
51655;DHT22;37732;53.106;7.030;2024-02-14T00:24:08;6.60;99.90
51655;DHT22;37732;53.106;7.030;2024-02-14T00:26:34;6.60;99.90
51655;DHT22;37732;53.106;7.030;2024-02-14T00:29:01;6.60;99.90
51655;DHT22;37732;53.106;7.030;2024-02-14T00:31:26;6.60;99.90
51655;DHT22;37732;53.106;7.030;2024-02-14T00:33:52;6.60;99.90
51655;DHT22;37732;53.106;7.030;2024-02-14T00:36:18;6.60;99.90
51655;DHT22;37732;53.106;7.030;2024-02-14T00:38:43;6.60;99.90
51655;DHT22;37732;53.106;7.030;2024-02-14T00:41:11;6.60;99.90
51655;DHT22;37732;53.106;7.030;2024-02-14T00:43:36;6.60;99.90
51655;DHT22;37732;53.106;7.030;2024-02-14T00:46:02;6.60;99.90
51655;DHT22;37732;53.106;7.030;2024-02-14T00:48:28;6.60;99.90
51655;DHT22;37732;53.106;7.030;2024-02-14T00:50:53;6.60;99.90
51655;DHT22;37732;53.106;7.030;2024-02-14T00:53:19;6.60;99.90
51655;DHT22;37732;53.106;7.030;2024-02-14T00:55:46;6.60;99.90
51655;DHT22;37732;53.106;7.030;2024-02-14T00:58:12;6.60;99.90
51655;DHT22;37732;53.106;7.030;2024-02-14T01:00:37;6.60;99.90
51655;DHT22;37732;53.106;7.030;2024-02-14T01:03:03;6.60;99.90
51655;DHT22;37732;53.106;7.030;2024-02-14T01:05:29;6.70;99.90
51655;DHT22;37732;53.106;7.030;2024-02-14T01:07:55;6.60;99.90
51655;DHT22;37732;53.106;7.030;2024-02-14T01:10:20;6.60;99.90
51655;DHT22;37732;53.106;7.030;2024-02-14T01:12:46;6.60;99.90
51655;DHT22;37732;53.106;7.030;2024-02-14T01:15:12;6.60;99.90
51655;DHT22;37732;53.106;7.030;2024-02-14T01:17:37;6.60;99.90
51655;DHT22;37732;53.106;7.030;2024-02-14T01:20:07;6.60;99.90
51655;DHT22;37732;53.106;7.030;2024-02-14T01:22:35;6.60;99.90
51655;DHT22;37732;53.106;7.030;2024-02-14T01:25:01;6.60;99.90
51655;DHT22;37732;53.106;7.030;2024-02-14T01:27:27;6.70;99.90
51655;DHT22;37732;53.106;7.030;2024-02-14T01:29:54;6.70;99.90
51655;DHT22;37732;53.106;7.030;2024-02-14T01:32:20;6.70;99.90
51655;DHT22;37732;53.106;7.030;2024-02-14T01:34:46;6.70;99.90
51655;DHT22;37732;53.106;7.030;2024-02-14T01:37:12;6.70;99.90
51655;DHT22;37732;53.106;7.030;2024-02-14T01:39:37;6.70;99.90
51655;DHT22;37732;53.106;7.030;2024-02-14T01:42:03;6.70;99.90
51655;DHT22;37732;53.106;7.030;2024-02-14T01:44:33;6.70;99.90
51655;DHT22;37732;53.106;7.030;2024-02-14T01:47:00;6.80;99.90
51655;DHT22;37732;53.106;7.030;2024-02-14T01:49:26;6.80;99.90
51655;DHT22;37732;53.106;7.030;2024-02-14T01:51:59;6.80;99.90
51655;DHT22;37732;53.106;7.030;2024-02-14T01:54:27;6.70;99.90
51655;DHT22;37732;53.106;7.030;2024-02-14T01:56:54;6.80;99.90
51655;DHT22;37732;53.106;7.030;2024-02-14T01:59:20;6.80;99.90
51655;DHT22;37732;53.106;7.030;2024-02-14T02:01:46;6.80;99.90
51655;DHT22;37732;53.106;7.030;2024-02-14T02:04:12;6.90;99.90
51655;DHT22;37732;53.106;7.030;2024-02-14T02:06:38;6.80;99.90
51655;DHT22;37732;53.106;7.030;2024-02-14T02:09:06;6.80;99.90
51655;DHT22;37732;53.106;7.030;2024-02-14T02:11:48;6.90;99.90
51655;DHT22;37732;53.106;7.030;2024-02-14T02:14:15;6.90;99.90
51655;DHT22;37732;53.106;7.030;2024-02-14T02:16:42;7.00;99.90
51655;DHT22;37732;53.106;7.030;2024-02-14T02:19:08;7.00;99.90
51655;DHT22;37732;53.106;7.030;2024-02-14T02:21:38;6.90;99.90
51655;DHT22;37732;53.106;7.030;2024-02-14T02:24:04;7.00;99.90
51655;DHT22;37732;53.106;7.030;2024-02-14T02:26:30;7.00;99.90
51655;DHT22;37732;53.106;7.030;2024-02-14T02:28:56;7.00;99.90
51655;DHT22;37732;53.106;7.030;2024-02-14T02:31:22;7.00;99.90
51655;DHT22;37732;53.106;7.030;2024-02-14T02:33:48;7.00;99.90
51655;DHT22;37732;53.106;7.030;2024-02-14T02:36:15;7.00;99.90
51655;DHT22;37732;53.106;7.030;2024-02-14T02:38:42;7.10;99.90
51655;DHT22;37732;53.106;7.030;2024-02-14T02:41:07;7.10;99.90
51655;DHT22;37732;53.106;7.030;2024-02-14T02:43:34;7.10;99.90
51655;DHT22;37732;53.106;7.030;2024-02-14T02:46:00;7.10;99.90
51655;DHT22;37732;53.106;7.030;2024-02-14T02:48:25;7.20;99.90
51655;DHT22;37732;53.106;7.030;2024-02-14T02:50:52;7.20;99.90
51655;DHT22;37732;53.106;7.030;2024-02-14T02:53:18;7.00;99.90
51655;DHT22;37732;53.106;7.030;2024-02-14T02:55:44;7.20;99.90
51655;DHT22;37732;53.106;7.030;2024-02-14T02:58:10;7.20;99.90
51655;DHT22;37732;53.106;7.030;2024-02-14T03:00:36;7.20;99.90
51655;DHT22;37732;53.106;7.030;2024-02-14T03:03:02;7.30;99.90
51655;DHT22;37732;53.106;7.030;2024-02-14T03:05:30;7.30;99.90
51655;DHT22;37732;53.106;7.030;2024-02-14T03:07:59;7.30;99.90
51655;DHT22;37732;53.106;7.030;2024-02-14T03:10:25;7.30;99.90
51655;DHT22;37732;53.106;7.030;2024-02-14T03:12:51;7.30;99.90
51655;DHT22;37732;53.106;7.030;2024-02-14T03:15:17;7.40;99.90
51655;DHT22;37732;53.106;7.030;2024-02-14T03:17:44;7.40;99.90
51655;DHT22;37732;53.106;7.030;2024-02-14T03:20:11;7.40;99.90
51655;DHT22;37732;53.106;7.030;2024-02-14T03:22:41;7.40;99.90
51655;DHT22;37732;53.106;7.030;2024-02-14T03:25:19;7.50;99.90
51655;DHT22;37732;53.106;7.030;2024-02-14T03:27:46;7.50;99.90
51655;DHT22;37732;53.106;7.030;2024-02-14T03:30:14;7.50;99.90
51655;DHT22;37732;53.106;7.030;2024-02-14T03:32:42;7.50;99.90
51655;DHT22;37732;53.106;7.030;2024-02-14T03:35:08;7.50;99.90
51655;DHT22;37732;53.106;7.030;2024-02-14T03:37:35;7.60;99.90
51655;DHT22;37732;53.106;7.030;2024-02-14T03:40:04;7.60;99.90
51655;DHT22;37732;53.106;7.030;2024-02-14T03:42:30;7.60;99.90
51655;DHT22;37732;53.106;7.030;2024-02-14T03:44:55;7.60;99.90
51655;DHT22;37732;53.106;7.030;2024-02-14T03:47:28;7.70;99.90
51655;DHT22;37732;53.106;7.030;2024-02-14T03:49:54;7.70;99.90
51655;DHT22;37732;53.106;7.030;2024-02-14T03:52:20;7.70;99.90
51655;DHT22;37732;53.106;7.030;2024-02-14T03:54:48;7.70;99.90
51655;DHT22;37732;53.106;7.030;2024-02-14T03:57:14;7.80;99.90
51655;DHT22;37732;53.106;7.030;2024-02-14T03:59:40;7.80;99.90
51655;DHT22;37732;53.106;7.030;2024-02-14T04:02:06;7.80;99.90
51655;DHT22;37732;53.106;7.030;2024-02-14T04:04:36;7.80;99.90
51655;DHT22;37732;53.106;7.030;2024-02-14T04:07:03;7.90;99.90
51655;DHT22;37732;53.106;7.030;2024-02-14T04:09:28;7.90;99.90
51655;DHT22;37732;53.106;7.030;2024-02-14T04:11:54;7.90;99.90
51655;DHT22;37732;53.106;7.030;2024-02-14T04:14:20;7.90;99.90
51655;DHT22;37732;53.106;7.030;2024-02-14T04:16:46;7.90;99.90
51655;DHT22;37732;53.106;7.030;2024-02-14T04:19:12;7.90;99.90
51655;DHT22;37732;53.106;7.030;2024-02-14T04:21:38;8.00;99.90
51655;DHT22;37732;53.106;7.030;2024-02-14T04:24:04;7.90;99.90
51655;DHT22;37732;53.106;7.030;2024-02-14T04:26:30;8.00;99.90
51655;DHT22;37732;53.106;7.030;2024-02-14T04:28:56;8.00;99.90
51655;DHT22;37732;53.106;7.030;2024-02-14T04:31:22;8.00;99.90
51655;DHT22;37732;53.106;7.030;2024-02-14T04:33:48;8.00;99.90
51655;DHT22;37732;53.106;7.030;2024-02-14T04:36:18;8.00;99.90
51655;DHT22;37732;53.106;7.030;2024-02-14T04:38:44;8.10;99.90
51655;DHT22;37732;53.106;7.030;2024-02-14T04:41:10;8.10;99.90
51655;DHT22;37732;53.106;7.030;2024-02-14T04:43:36;8.10;99.90
51655;DHT22;37732;53.106;7.030;2024-02-14T04:46:01;8.20;99.90
51655;DHT22;37732;53.106;7.030;2024-02-14T04:48:27;8.20;99.90
51655;DHT22;37732;53.106;7.030;2024-02-14T04:50:53;8.20;99.90
51655;DHT22;37732;53.106;7.030;2024-02-14T04:53:19;8.20;99.90
51655;DHT22;37732;53.106;7.030;2024-02-14T04:55:45;8.20;99.90
51655;DHT22;37732;53.106;7.030;2024-02-14T04:58:11;8.20;99.90
51655;DHT22;37732;53.106;7.030;2024-02-14T05:00:36;8.30;99.90
51655;DHT22;37732;53.106;7.030;2024-02-14T05:03:04;8.30;99.90
51655;DHT22;37732;53.106;7.030;2024-02-14T05:05:30;8.30;99.90
51655;DHT22;37732;53.106;7.030;2024-02-14T05:07:56;8.30;99.90
51655;DHT22;37732;53.106;7.030;2024-02-14T05:10:22;8.30;99.90
51655;DHT22;37732;53.106;7.030;2024-02-14T05:12:47;8.40;99.90
51655;DHT22;37732;53.106;7.030;2024-02-14T05:15:13;8.40;99.90
51655;DHT22;37732;53.106;7.030;2024-02-14T05:17:42;8.40;99.90
51655;DHT22;37732;53.106;7.030;2024-02-14T05:20:09;8.50;99.90
51655;DHT22;37732;53.106;7.030;2024-02-14T05:22:38;8.40;99.90
51655;DHT22;37732;53.106;7.030;2024-02-14T05:25:04;8.50;99.90
51655;DHT22;37732;53.106;7.030;2024-02-14T05:27:32;8.50;99.90
51655;DHT22;37732;53.106;7.030;2024-02-14T05:29:58;8.50;99.90
51655;DHT22;37732;53.106;7.030;2024-02-14T05:32:24;8.50;99.90
51655;DHT22;37732;53.106;7.030;2024-02-14T05:34:51;8.60;99.90
51655;DHT22;37732;53.106;7.030;2024-02-14T05:37:16;8.60;99.90
51655;DHT22;37732;53.106;7.030;2024-02-14T05:39:42;8.60;99.90
51655;DHT22;37732;53.106;7.030;2024-02-14T05:42:08;8.70;99.90
51655;DHT22;37732;53.106;7.030;2024-02-14T05:44:34;8.70;99.90
51655;DHT22;37732;53.106;7.030;2024-02-14T05:47:00;8.70;99.90
51655;DHT22;37732;53.106;7.030;2024-02-14T05:49:26;8.70;99.90
51655;DHT22;37732;53.106;7.030;2024-02-14T05:51:51;8.80;99.90
51655;DHT22;37732;53.106;7.030;2024-02-14T05:54:19;8.70;99.90
51655;DHT22;37732;53.106;7.030;2024-02-14T05:56:46;8.80;99.90
51655;DHT22;37732;53.106;7.030;2024-02-14T05:59:11;8.80;99.90
51655;DHT22;37732;53.106;7.030;2024-02-14T06:01:37;8.80;99.90
51655;DHT22;37732;53.106;7.030;2024-02-14T06:04:03;8.90;99.90
51655;DHT22;37732;53.106;7.030;2024-02-14T06:06:29;8.90;99.90
51655;DHT22;37732;53.106;7.030;2024-02-14T06:08:54;8.90;99.90
51655;DHT22;37732;53.106;7.030;2024-02-14T06:11:20;9.00;99.90
51655;DHT22;37732;53.106;7.030;2024-02-14T06:13:49;9.00;99.90
51655;DHT22;37732;53.106;7.030;2024-02-14T06:16:15;9.00;99.90
51655;DHT22;37732;53.106;7.030;2024-02-14T06:18:41;9.00;99.90
51655;DHT22;37732;53.106;7.030;2024-02-14T06:21:07;9.00;99.90
51655;DHT22;37732;53.106;7.030;2024-02-14T06:23:32;9.00;99.90
51655;DHT22;37732;53.106;7.030;2024-02-14T06:25:58;9.10;99.90
51655;DHT22;37732;53.106;7.030;2024-02-14T06:28:24;9.10;99.90
51655;DHT22;37732;53.106;7.030;2024-02-14T06:30:50;9.10;99.90
51655;DHT22;37732;53.106;7.030;2024-02-14T06:33:16;9.10;99.90
51655;DHT22;37732;53.106;7.030;2024-02-14T06:35:41;9.10;99.90
51655;DHT22;37732;53.106;7.030;2024-02-14T06:38:07;9.20;99.90
51655;DHT22;37732;53.106;7.030;2024-02-14T06:40:33;9.20;99.90
51655;DHT22;37732;53.106;7.030;2024-02-14T06:42:59;9.10;99.90
51655;DHT22;37732;53.106;7.030;2024-02-14T06:45:28;9.10;99.90
51655;DHT22;37732;53.106;7.030;2024-02-14T06:47:54;9.20;99.90
51655;DHT22;37732;53.106;7.030;2024-02-14T06:50:20;9.20;99.90
51655;DHT22;37732;53.106;7.030;2024-02-14T06:52:45;9.30;99.90
51655;DHT22;37732;53.106;7.030;2024-02-14T06:55:11;9.20;99.90
51655;DHT22;37732;53.106;7.030;2024-02-14T06:57:37;9.30;99.90
51655;DHT22;37732;53.106;7.030;2024-02-14T07:00:03;9.20;99.90
51655;DHT22;37732;53.106;7.030;2024-02-14T07:02:31;9.30;99.90
51655;DHT22;37732;53.106;7.030;2024-02-14T07:04:57;9.30;99.90
51655;DHT22;37732;53.106;7.030;2024-02-14T07:07:23;9.30;99.90
51655;DHT22;37732;53.106;7.030;2024-02-14T07:09:48;9.30;99.90
51655;DHT22;37732;53.106;7.030;2024-02-14T07:12:14;9.30;99.90
51655;DHT22;37732;53.106;7.030;2024-02-14T07:14:40;9.40;99.90
51655;DHT22;37732;53.106;7.030;2024-02-14T07:17:07;9.40;99.90
51655;DHT22;37732;53.106;7.030;2024-02-14T07:19:32;9.40;99.90
51655;DHT22;37732;53.106;7.030;2024-02-14T07:21:58;9.40;99.90
51655;DHT22;37732;53.106;7.030;2024-02-14T07:24:24;9.40;99.90
51655;DHT22;37732;53.106;7.030;2024-02-14T07:26:49;9.40;99.90
51655;DHT22;37732;53.106;7.030;2024-02-14T07:29:15;9.50;99.90
51655;DHT22;37732;53.106;7.030;2024-02-14T07:31:40;9.50;99.90
51655;DHT22;37732;53.106;7.030;2024-02-14T07:34:07;9.50;99.90
51655;DHT22;37732;53.106;7.030;2024-02-14T07:36:32;9.50;99.90
51655;DHT22;37732;53.106;7.030;2024-02-14T07:38:58;9.60;99.90
51655;DHT22;37732;53.106;7.030;2024-02-14T07:41:24;9.60;99.90
51655;DHT22;37732;53.106;7.030;2024-02-14T07:43:50;9.60;99.90
51655;DHT22;37732;53.106;7.030;2024-02-14T07:46:19;9.70;99.90
51655;DHT22;37732;53.106;7.030;2024-02-14T07:48:45;9.70;99.90
51655;DHT22;37732;53.106;7.030;2024-02-14T07:51:12;9.70;99.90
51655;DHT22;37732;53.106;7.030;2024-02-14T07:53:38;9.80;99.90
51655;DHT22;37732;53.106;7.030;2024-02-14T07:56:03;9.70;99.90
51655;DHT22;37732;53.106;7.030;2024-02-14T07:58:29;9.70;99.90
51655;DHT22;37732;53.106;7.030;2024-02-14T08:00:55;9.70;99.90
51655;DHT22;37732;53.106;7.030;2024-02-14T08:03:20;9.70;99.90
51655;DHT22;37732;53.106;7.030;2024-02-14T08:05:46;9.80;99.90
51655;DHT22;37732;53.106;7.030;2024-02-14T08:08:12;9.80;99.90
51655;DHT22;37732;53.106;7.030;2024-02-14T08:10:37;9.80;99.90
51655;DHT22;37732;53.106;7.030;2024-02-14T08:13:04;9.90;99.90
51655;DHT22;37732;53.106;7.030;2024-02-14T08:15:30;9.90;99.90
51655;DHT22;37732;53.106;7.030;2024-02-14T08:17:55;9.90;99.90
51655;DHT22;37732;53.106;7.030;2024-02-14T08:20:22;9.90;99.90
51655;DHT22;37732;53.106;7.030;2024-02-14T08:22:49;10.00;99.90
51655;DHT22;37732;53.106;7.030;2024-02-14T08:25:15;10.00;99.90
51655;DHT22;37732;53.106;7.030;2024-02-14T08:27:41;10.00;99.90
51655;DHT22;37732;53.106;7.030;2024-02-14T08:30:07;10.00;99.90
51655;DHT22;37732;53.106;7.030;2024-02-14T08:32:34;10.10;99.90
51655;DHT22;37732;53.106;7.030;2024-02-14T08:35:00;10.10;99.90
51655;DHT22;37732;53.106;7.030;2024-02-14T08:37:27;10.10;99.90
51655;DHT22;37732;53.106;7.030;2024-02-14T08:39:53;10.10;99.90
51655;DHT22;37732;53.106;7.030;2024-02-14T08:42:18;10.10;99.90
51655;DHT22;37732;53.106;7.030;2024-02-14T08:44:44;10.10;99.90
51655;DHT22;37732;53.106;7.030;2024-02-14T08:47:10;10.20;99.90
51655;DHT22;37732;53.106;7.030;2024-02-14T08:49:36;10.20;99.90
51655;DHT22;37732;53.106;7.030;2024-02-14T08:52:02;10.30;99.90
51655;DHT22;37732;53.106;7.030;2024-02-14T08:54:28;10.20;99.90
51655;DHT22;37732;53.106;7.030;2024-02-14T08:56:54;10.30;99.90
51655;DHT22;37732;53.106;7.030;2024-02-14T08:59:21;10.30;99.90
51655;DHT22;37732;53.106;7.030;2024-02-14T09:01:47;10.30;99.90
51655;DHT22;37732;53.106;7.030;2024-02-14T09:04:14;10.30;99.90
51655;DHT22;37732;53.106;7.030;2024-02-14T09:06:39;10.40;99.90
51655;DHT22;37732;53.106;7.030;2024-02-14T09:09:07;10.40;99.90
51655;DHT22;37732;53.106;7.030;2024-02-14T09:11:35;10.40;99.90
51655;DHT22;37732;53.106;7.030;2024-02-14T09:14:01;10.40;99.90
51655;DHT22;37732;53.106;7.030;2024-02-14T09:16:34;10.40;99.90
51655;DHT22;37732;53.106;7.030;2024-02-14T09:19:00;10.40;99.90
51655;DHT22;37732;53.106;7.030;2024-02-14T09:21:33;10.40;99.90
51655;DHT22;37732;53.106;7.030;2024-02-14T09:24:01;10.40;99.90
51655;DHT22;37732;53.106;7.030;2024-02-14T09:26:28;10.40;99.90
51655;DHT22;37732;53.106;7.030;2024-02-14T09:28:55;10.40;99.90
51655;DHT22;37732;53.106;7.030;2024-02-14T09:31:21;10.50;99.90
51655;DHT22;37732;53.106;7.030;2024-02-14T09:33:47;10.50;99.90
51655;DHT22;37732;53.106;7.030;2024-02-14T09:36:13;10.50;99.90
51655;DHT22;37732;53.106;7.030;2024-02-14T09:38:42;10.50;99.90
51655;DHT22;37732;53.106;7.030;2024-02-14T09:41:15;10.50;99.90
51655;DHT22;37732;53.106;7.030;2024-02-14T09:43:45;10.60;99.90
51655;DHT22;37732;53.106;7.030;2024-02-14T09:46:14;10.60;99.90
51655;DHT22;37732;53.106;7.030;2024-02-14T09:48:44;10.60;99.90
51655;DHT22;37732;53.106;7.030;2024-02-14T09:51:11;10.60;99.90
51655;DHT22;37732;53.106;7.030;2024-02-14T09:53:38;10.60;99.90
51655;DHT22;37732;53.106;7.030;2024-02-14T09:56:05;10.60;99.90
51655;DHT22;37732;53.106;7.030;2024-02-14T09:58:34;10.60;99.90
51655;DHT22;37732;53.106;7.030;2024-02-14T10:01:00;10.60;99.90
51655;DHT22;37732;53.106;7.030;2024-02-14T10:03:26;10.70;99.90
51655;DHT22;37732;53.106;7.030;2024-02-14T10:05:52;10.70;99.90
51655;DHT22;37732;53.106;7.030;2024-02-14T10:08:18;10.70;99.90
51655;DHT22;37732;53.106;7.030;2024-02-14T10:10:46;10.70;99.90
51655;DHT22;37732;53.106;7.030;2024-02-14T10:13:12;10.70;99.90
51655;DHT22;37732;53.106;7.030;2024-02-14T10:15:38;10.70;99.90
51655;DHT22;37732;53.106;7.030;2024-02-14T10:18:04;10.70;99.90
51655;DHT22;37732;53.106;7.030;2024-02-14T10:20:29;10.70;99.90
51655;DHT22;37732;53.106;7.030;2024-02-14T10:23:05;10.70;99.90
51655;DHT22;37732;53.106;7.030;2024-02-14T10:25:31;10.70;99.90
51655;DHT22;37732;53.106;7.030;2024-02-14T10:27:57;10.70;99.90
51655;DHT22;37732;53.106;7.030;2024-02-14T10:30:28;10.70;99.90
51655;DHT22;37732;53.106;7.030;2024-02-14T10:32:53;10.70;99.90
51655;DHT22;37732;53.106;7.030;2024-02-14T10:35:20;10.80;99.90
51655;DHT22;37732;53.106;7.030;2024-02-14T10:37:47;10.70;99.90
51655;DHT22;37732;53.106;7.030;2024-02-14T10:40:14;10.80;99.90
51655;DHT22;37732;53.106;7.030;2024-02-14T10:42:39;10.80;99.90
51655;DHT22;37732;53.106;7.030;2024-02-14T10:45:06;10.80;99.90
51655;DHT22;37732;53.106;7.030;2024-02-14T10:47:34;10.80;99.90
51655;DHT22;37732;53.106;7.030;2024-02-14T10:50:05;10.80;99.90
51655;DHT22;37732;53.106;7.030;2024-02-14T10:52:34;10.90;99.90
51655;DHT22;37732;53.106;7.030;2024-02-14T10:55:02;10.80;99.90
51655;DHT22;37732;53.106;7.030;2024-02-14T10:57:29;10.90;99.90
51655;DHT22;37732;53.106;7.030;2024-02-14T10:59:55;10.90;99.90
51655;DHT22;37732;53.106;7.030;2024-02-14T11:02:23;11.00;99.90
51655;DHT22;37732;53.106;7.030;2024-02-14T11:04:49;10.90;99.90
51655;DHT22;37732;53.106;7.030;2024-02-14T11:07:20;10.90;99.90
51655;DHT22;37732;53.106;7.030;2024-02-14T11:09:48;10.90;99.90
51655;DHT22;37732;53.106;7.030;2024-02-14T11:12:15;10.90;99.90
51655;DHT22;37732;53.106;7.030;2024-02-14T11:14:44;11.00;99.90
51655;DHT22;37732;53.106;7.030;2024-02-14T11:17:12;11.00;99.90
51655;DHT22;37732;53.106;7.030;2024-02-14T11:19:38;11.00;99.90
51655;DHT22;37732;53.106;7.030;2024-02-14T11:22:19;11.00;99.90
51655;DHT22;37732;53.106;7.030;2024-02-14T11:24:48;11.00;99.90
51655;DHT22;37732;53.106;7.030;2024-02-14T11:27:14;11.10;99.90
51655;DHT22;37732;53.106;7.030;2024-02-14T11:29:53;11.10;99.90
51655;DHT22;37732;53.106;7.030;2024-02-14T11:32:19;11.00;99.90
51655;DHT22;37732;53.106;7.030;2024-02-14T11:34:54;11.10;99.90
51655;DHT22;37732;53.106;7.030;2024-02-14T11:37:27;11.10;99.90
51655;DHT22;37732;53.106;7.030;2024-02-14T11:39:54;11.10;99.90
51655;DHT22;37732;53.106;7.030;2024-02-14T11:42:23;11.10;99.90
51655;DHT22;37732;53.106;7.030;2024-02-14T11:44:49;11.10;99.90
51655;DHT22;37732;53.106;7.030;2024-02-14T11:47:15;11.10;99.90
51655;DHT22;37732;53.106;7.030;2024-02-14T11:49:40;11.20;99.90
51655;DHT22;37732;53.106;7.030;2024-02-14T11:52:11;11.20;99.90
51655;DHT22;37732;53.106;7.030;2024-02-14T11:54:37;11.20;99.90
51655;DHT22;37732;53.106;7.030;2024-02-14T11:57:03;11.20;99.90
51655;DHT22;37732;53.106;7.030;2024-02-14T11:59:29;11.30;99.90
51655;DHT22;37732;53.106;7.030;2024-02-14T12:01:55;11.30;99.90
51655;DHT22;37732;53.106;7.030;2024-02-14T12:04:23;11.20;99.90
51655;DHT22;37732;53.106;7.030;2024-02-14T12:06:49;11.20;99.90
51655;DHT22;37732;53.106;7.030;2024-02-14T12:09:15;11.20;99.90
51655;DHT22;37732;53.106;7.030;2024-02-14T12:11:41;11.20;99.90
51655;DHT22;37732;53.106;7.030;2024-02-14T12:14:11;11.30;99.90
51655;DHT22;37732;53.106;7.030;2024-02-14T12:16:38;11.20;99.90
51655;DHT22;37732;53.106;7.030;2024-02-14T12:19:15;11.30;99.90
51655;DHT22;37732;53.106;7.030;2024-02-14T12:21:41;11.30;99.90
51655;DHT22;37732;53.106;7.030;2024-02-14T12:24:12;11.30;99.90
51655;DHT22;37732;53.106;7.030;2024-02-14T12:26:42;11.20;99.90
51655;DHT22;37732;53.106;7.030;2024-02-14T12:29:10;11.30;99.90
51655;DHT22;37732;53.106;7.030;2024-02-14T12:31:36;11.30;99.90
51655;DHT22;37732;53.106;7.030;2024-02-14T12:34:03;11.30;99.90
51655;DHT22;37732;53.106;7.030;2024-02-14T12:36:33;11.40;99.90
51655;DHT22;37732;53.106;7.030;2024-02-14T12:39:00;11.40;99.90
51655;DHT22;37732;53.106;7.030;2024-02-14T12:41:30;11.40;99.90
51655;DHT22;37732;53.106;7.030;2024-02-14T12:43:56;11.40;99.90
51655;DHT22;37732;53.106;7.030;2024-02-14T12:46:22;11.50;99.90
51655;DHT22;37732;53.106;7.030;2024-02-14T12:48:48;11.50;99.90
51655;DHT22;37732;53.106;7.030;2024-02-14T12:51:14;11.50;99.90
51655;DHT22;37732;53.106;7.030;2024-02-14T12:53:40;11.50;99.90
51655;DHT22;37732;53.106;7.030;2024-02-14T12:56:07;11.60;99.90
51655;DHT22;37732;53.106;7.030;2024-02-14T12:58:33;11.50;99.90
51655;DHT22;37732;53.106;7.030;2024-02-14T13:00:59;11.50;99.90
51655;DHT22;37732;53.106;7.030;2024-02-14T13:03:26;11.50;99.90
51655;DHT22;37732;53.106;7.030;2024-02-14T13:05:53;11.50;99.90
51655;DHT22;37732;53.106;7.030;2024-02-14T13:08:20;11.50;99.90
51655;DHT22;37732;53.106;7.030;2024-02-14T13:10:46;11.60;99.90
51655;DHT22;37732;53.106;7.030;2024-02-14T13:13:12;11.60;99.90
51655;DHT22;37732;53.106;7.030;2024-02-14T13:15:39;11.50;99.90
51655;DHT22;37732;53.106;7.030;2024-02-14T13:18:06;11.50;99.90
51655;DHT22;37732;53.106;7.030;2024-02-14T13:20:32;11.50;99.90
51655;DHT22;37732;53.106;7.030;2024-02-14T13:22:57;11.50;99.90
51655;DHT22;37732;53.106;7.030;2024-02-14T13:25:24;11.50;99.90
51655;DHT22;37732;53.106;7.030;2024-02-14T13:27:49;11.60;99.90
51655;DHT22;37732;53.106;7.030;2024-02-14T13:30:15;11.60;99.90
51655;DHT22;37732;53.106;7.030;2024-02-14T13:32:41;11.60;99.90
51655;DHT22;37732;53.106;7.030;2024-02-14T13:35:07;11.50;99.90
51655;DHT22;37732;53.106;7.030;2024-02-14T13:37:33;11.60;99.90
51655;DHT22;37732;53.106;7.030;2024-02-14T13:39:59;11.60;99.90
51655;DHT22;37732;53.106;7.030;2024-02-14T13:42:26;11.50;99.90
51655;DHT22;37732;53.106;7.030;2024-02-14T13:44:52;11.60;99.90
51655;DHT22;37732;53.106;7.030;2024-02-14T13:47:19;11.60;99.90
51655;DHT22;37732;53.106;7.030;2024-02-14T13:49:46;11.60;99.90
51655;DHT22;37732;53.106;7.030;2024-02-14T13:52:12;11.60;99.90
51655;DHT22;37732;53.106;7.030;2024-02-14T13:54:38;11.60;99.90
51655;DHT22;37732;53.106;7.030;2024-02-14T13:57:04;11.60;99.90
51655;DHT22;37732;53.106;7.030;2024-02-14T13:59:30;11.50;99.90
51655;DHT22;37732;53.106;7.030;2024-02-14T14:01:56;11.60;99.90
51655;DHT22;37732;53.106;7.030;2024-02-14T14:04:21;11.60;99.90
51655;DHT22;37732;53.106;7.030;2024-02-14T14:06:47;11.60;99.90
51655;DHT22;37732;53.106;7.030;2024-02-14T14:09:13;11.50;99.90
51655;DHT22;37732;53.106;7.030;2024-02-14T14:11:39;11.50;99.90
51655;DHT22;37732;53.106;7.030;2024-02-14T14:14:05;11.50;99.90
51655;DHT22;37732;53.106;7.030;2024-02-14T14:16:31;11.50;99.90
51655;DHT22;37732;53.106;7.030;2024-02-14T14:18:58;11.40;99.90
51655;DHT22;37732;53.106;7.030;2024-02-14T14:21:24;11.50;99.90
51655;DHT22;37732;53.106;7.030;2024-02-14T14:23:50;11.50;99.90
51655;DHT22;37732;53.106;7.030;2024-02-14T14:26:16;11.50;99.90
51655;DHT22;37732;53.106;7.030;2024-02-14T14:28:41;11.50;99.90
51655;DHT22;37732;53.106;7.030;2024-02-14T14:31:08;11.50;99.90
51655;DHT22;37732;53.106;7.030;2024-02-14T14:33:37;11.50;99.90
51655;DHT22;37732;53.106;7.030;2024-02-14T14:36:04;11.50;99.90
51655;DHT22;37732;53.106;7.030;2024-02-14T14:38:30;11.50;99.90
51655;DHT22;37732;53.106;7.030;2024-02-14T14:40:57;11.50;99.90
51655;DHT22;37732;53.106;7.030;2024-02-14T14:43:24;11.50;99.90
51655;DHT22;37732;53.106;7.030;2024-02-14T14:45:50;11.60;99.90
51655;DHT22;37732;53.106;7.030;2024-02-14T14:48:18;11.60;99.90
51655;DHT22;37732;53.106;7.030;2024-02-14T14:50:44;11.50;99.90
51655;DHT22;37732;53.106;7.030;2024-02-14T14:53:10;11.50;99.90
51655;DHT22;37732;53.106;7.030;2024-02-14T14:55:53;11.50;99.90
51655;DHT22;37732;53.106;7.030;2024-02-14T14:58:21;11.50;99.90
51655;DHT22;37732;53.106;7.030;2024-02-14T15:00:48;11.40;99.90
51655;DHT22;37732;53.106;7.030;2024-02-14T15:03:14;11.50;99.90
51655;DHT22;37732;53.106;7.030;2024-02-14T15:05:40;11.50;99.90
51655;DHT22;37732;53.106;7.030;2024-02-14T15:08:07;11.40;99.90
51655;DHT22;37732;53.106;7.030;2024-02-14T15:10:34;11.40;99.90
51655;DHT22;37732;53.106;7.030;2024-02-14T15:13:00;11.40;99.90
51655;DHT22;37732;53.106;7.030;2024-02-14T15:15:26;11.40;99.90
51655;DHT22;37732;53.106;7.030;2024-02-14T15:17:52;11.40;99.90
51655;DHT22;37732;53.106;7.030;2024-02-14T15:20:17;11.50;99.90
51655;DHT22;37732;53.106;7.030;2024-02-14T15:22:43;11.40;99.90
51655;DHT22;37732;53.106;7.030;2024-02-14T15:25:09;11.40;99.90
51655;DHT22;37732;53.106;7.030;2024-02-14T15:27:34;11.40;99.90
51655;DHT22;37732;53.106;7.030;2024-02-14T15:30:06;11.40;99.90
51655;DHT22;37732;53.106;7.030;2024-02-14T15:32:51;11.40;99.90
51655;DHT22;37732;53.106;7.030;2024-02-14T15:35:35;11.40;99.90
51655;DHT22;37732;53.106;7.030;2024-02-14T15:38:01;11.40;99.90